Weather at Beijing Capital International Airport

Public forecast

Using degrees Celsius for public forecast. Weather courtesy of forecast.io.

Current aviation weather report (METAR) for Beijing Capital International Airport

Report is more than 6 hours old.

Retrieved 2022/09/17 19:00 UTC (14 days ago):

ZBAA 171900Z 01005MPS 340V040 CAVOK 24/06 Q1010 NOSIG

Aviation forecast (TAF) for Beijing Capital International Airport

Forecast is more than 12 hours old.

Retrieved 2022/09/01 06:03 UTC (1 month ago):

TAF TAF ZBAA 010305Z 0106/0206 15004MPS CAVOK TX29/0107Z TN15/0121Z